Time,TemperatureF,DewpointF,PressureIn,WindDirection,WindDirectionDegrees,WindSpeedMPH,WindSpeedGustMPH,Humidity,HourlyPrecipIn,Conditions,Clouds,dailyrainin,SoftwareType,DateUTC
2013-03-10 00:01:00,61.0,51.0,30.05,North,360,0.0,0.0,69,0.00,,,0.00,,2013-03-10 05:01:00,
2013-03-10 00:11:00,61.0,51.0,30.05,North,360,0.0,0.0,69,0.00,,,0.00,,2013-03-10 05:11:00,
2013-03-10 00:22:00,61.0,50.0,30.06,North,360,0.0,0.0,68,0.00,,,0.00,,2013-03-10 05:22:00,
2013-03-10 00:32:00,61.0,50.0,30.05,NNE,19,1.0,1.0,68,0.00,,,0.00,,2013-03-10 05:32:00,
2013-03-10 00:42:00,60.0,50.0,30.05,NNW,346,0.0,0.0,69,0.00,,,0.00,,2013-03-10 05:42:00,
2013-03-10 00:52:00,60.0,50.0,30.05,NNW,346,0.0,0.0,69,0.00,,,0.00,,2013-03-10 05:52:00,
2013-03-10 01:01:00,60.0,50.0,30.05,North,360,1.0,1.0,69,0.00,,,0.00,,2013-03-10 06:01:00,
2013-03-10 01:11:00,60.0,50.0,30.04,ENE,66,2.0,2.0,70,0.00,,,0.00,,2013-03-10 06:11:00,
2013-03-10 01:22:00,60.0,50.0,30.04,ENE,66,2.0,2.0,70,0.00,,,0.00,,2013-03-10 06:22:00,
2013-03-10 01:32:00,60.0,51.0,30.03,ENE,77,0.0,0.0,71,0.00,,,0.00,,2013-03-10 06:32:00,
2013-03-10 01:42:00,59.0,50.0,30.04,North,360,0.0,0.0,72,0.00,,,0.00,,2013-03-10 06:42:00,
2013-03-10 01:52:00,59.0,50.0,30.04,North,360,0.0,0.0,72,0.00,,,0.00,,2013-03-10 06:52:00,
2013-03-10 03:02:00,59.0,50.0,30.03,North,360,0.0,0.0,73,0.00,,,0.00,,2013-03-10 07:02:00,
2013-03-10 03:11:00,58.0,50.0,30.03,North,360,0.0,1.0,74,0.00,,,0.00,,2013-03-10 07:11:00,
2013-03-10 03:21:00,58.0,50.0,30.03,North,360,0.0,1.0,74,0.00,,,0.00,,2013-03-10 07:21:00,
2013-03-10 03:32:00,58.0,50.0,30.03,North,360,0.0,0.0,76,0.00,,,0.00,,2013-03-10 07:32:00,
2013-03-10 03:42:00,58.0,50.0,30.03,North,360,0.0,0.0,76,0.00,,,0.00,,2013-03-10 07:42:00,
2013-03-10 03:52:00,58.0,50.0,30.03,North,360,0.0,0.0,76,0.00,,,0.00,,2013-03-10 07:52:00,
2013-03-10 04:01:00,58.0,51.0,30.02,North,360,0.0,0.0,77,0.00,,,0.00,,2013-03-10 08:01:00,
2013-03-10 04:11:00,58.0,52.0,30.02,ENE,57,1.0,1.0,79,0.00,,,0.00,,2013-03-10 08:11:00,
2013-03-10 04:21:00,58.0,52.0,30.02,ENE,57,1.0,1.0,79,0.00,,,0.00,,2013-03-10 08:21:00,
2013-03-10 04:31:00,57.0,51.0,30.01,NE,39,1.0,1.0,80,0.00,,,0.00,,2013-03-10 08:31:00,
2013-03-10 04:42:00,57.0,51.0,30.01,North,360,0.0,0.0,81,0.00,,,0.00,,2013-03-10 08:42:00,
2013-03-10 04:52:00,57.0,51.0,30.01,North,360,0.0,0.0,81,0.00,,,0.00,,2013-03-10 08:52:00,
2013-03-10 05:01:00,57.0,51.0,30.01,North,360,0.0,0.0,81,0.00,,,0.00,,2013-03-10 09:01:00,
2013-03-10 05:11:00,56.0,51.0,30.01,North,360,0.0,0.0,82,0.00,,,0.00,,2013-03-10 09:11:00,
2013-03-10 05:21:00,56.0,51.0,30.01,North,360,0.0,0.0,82,0.00,,,0.00,,2013-03-10 09:21:00,
2013-03-10 05:31:00,56.0,51.0,30.01,North,360,0.0,0.0,83,0.00,,,0.00,,2013-03-10 09:31:00,
2013-03-10 05:41:00,56.0,51.0,30.01,North,360,0.0,0.0,84,0.00,,,0.00,,2013-03-10 09:41:00,
2013-03-10 05:52:00,56.0,51.0,30.01,North,360,0.0,0.0,84,0.00,,,0.00,,2013-03-10 09:52:00,
2013-03-10 06:01:00,57.0,52.0,30.01,North,360,0.0,1.0,84,0.00,,,0.00,,2013-03-10 10:01:00,
2013-03-10 06:11:00,57.0,52.0,30.01,North,360,0.0,1.0,84,0.00,,,0.00,,2013-03-10 10:11:00,
2013-03-10 06:21:00,57.0,52.0,30.01,North,360,0.0,0.0,84,0.00,,,0.00,,2013-03-10 10:21:00,
2013-03-10 06:32:00,57.0,52.0,30.01,North,360,0.0,0.0,84,0.00,,,0.00,,2013-03-10 10:32:00,
2013-03-10 06:42:00,57.0,53.0,30.02,North,360,0.0,0.0,85,0.00,,,0.00,,2013-03-10 10:42:00,
2013-03-10 06:52:00,57.0,53.0,30.02,North,360,0.0,0.0,85,0.00,,,0.00,,2013-03-10 10:52:00,
2013-03-10 07:01:00,57.0,53.0,30.02,NE,43,1.0,1.0,85,0.00,,,0.00,,2013-03-10 11:01:00,
2013-03-10 07:12:00,57.0,53.0,30.02,NE,43,0.0,0.0,85,0.00,,,0.00,,2013-03-10 11:12:00,
2013-03-10 07:21:00,57.0,53.0,30.02,NE,43,0.0,0.0,85,0.00,,,0.00,,2013-03-10 11:21:00,
2013-03-10 07:32:00,56.0,52.0,30.02,North,360,0.0,0.0,85,0.00,,,0.00,,2013-03-10 11:32:00,
2013-03-10 07:42:00,56.0,52.0,30.02,North,360,0.0,0.0,85,0.00,,,0.00,,2013-03-10 11:42:00,
2013-03-10 07:52:00,56.0,52.0,30.03,North,360,0.0,0.0,86,0.00,,,0.00,,2013-03-10 11:52:00,
2013-03-10 08:01:00,56.0,52.0,30.03,NE,43,0.0,0.0,87,0.00,,,0.00,,2013-03-10 12:01:00,
2013-03-10 08:11:00,56.0,52.0,30.03,NE,43,0.0,0.0,87,0.00,,,0.00,,2013-03-10 12:11:00,
2013-03-10 08:21:00,56.0,52.0,30.03,North,360,0.0,0.0,87,0.00,,,0.00,,2013-03-10 12:21:00,
2013-03-10 08:31:00,56.0,52.0,30.03,North,360,0.0,0.0,87,0.00,,,0.00,,2013-03-10 12:31:00,
2013-03-10 08:42:00,56.0,52.0,30.03,North,360,0.0,0.0,87,0.00,,,0.00,,2013-03-10 12:42:00,
2013-03-10 08:52:00,57.0,53.0,30.04,North,360,0.0,0.0,87,0.00,,,0.00,,2013-03-10 12:52:00,
2013-03-10 09:01:00,57.0,53.0,30.05,North,360,0.0,0.0,86,0.00,,,0.00,,2013-03-10 13:01:00,
2013-03-10 09:11:00,57.0,53.0,30.05,North,360,0.0,0.0,86,0.00,,,0.00,,2013-03-10 13:11:00,
2013-03-10 09:21:00,58.0,54.0,30.05,North,360,0.0,0.0,85,0.00,,,0.00,,2013-03-10 13:21:00,
2013-03-10 09:31:00,59.0,54.0,30.05,NNE,12,1.0,1.0,84,0.00,,,0.00,,2013-03-10 13:31:00,
2013-03-10 09:41:00,59.0,54.0,30.05,NNE,12,1.0,1.0,84,0.00,,,0.00,,2013-03-10 13:41:00,
2013-03-10 09:52:00,60.0,54.0,30.05,North,360,0.0,1.0,81,0.00,,,0.00,,2013-03-10 13:52:00,
2013-03-10 10:01:00,61.0,54.0,30.05,North,360,0.0,1.0,78,0.00,,,0.00,,2013-03-10 14:01:00,
2013-03-10 10:11:00,61.0,54.0,30.05,North,360,0.0,1.0,78,0.00,,,0.00,,2013-03-10 14:11:00,
2013-03-10 10:21:00,62.0,54.0,30.04,NW,323,0.0,1.0,76,0.00,,,0.00,,2013-03-10 14:21:00,
2013-03-10 10:32:00,64.0,55.0,30.05,NNE,21,4.0,4.0,73,0.00,,,0.00,,2013-03-10 14:32:00,
2013-03-10 10:42:00,64.0,55.0,30.05,NNE,21,4.0,4.0,73,0.00,,,0.00,,2013-03-10 14:42:00,
2013-03-10 10:52:00,66.0,56.0,30.05,NE,42,2.0,2.0,69,0.00,,,0.00,,2013-03-10 14:52:00,
2013-03-10 11:01:00,67.0,56.0,30.05,NE,45,1.0,5.0,67,0.00,,,0.00,,2013-03-10 15:01:00,
2013-03-10 11:11:00,67.0,56.0,30.05,NE,45,1.0,5.0,67,0.00,,,0.00,,2013-03-10 15:11:00,
2013-03-10 11:21:00,68.0,56.0,30.04,ESE,118,1.0,2.0,65,0.00,,,0.00,,2013-03-10 15:21:00,
2013-03-10 11:32:00,69.0,55.0,30.03,SE,145,1.0,3.0,62,0.00,,,0.00,,2013-03-10 15:32:00,
2013-03-10 11:42:00,69.0,55.0,30.03,SE,145,1.0,3.0,62,0.00,,,0.00,,2013-03-10 15:42:00,
2013-03-10 11:52:00,70.0,56.0,30.02,West,270,1.0,3.0,61,0.00,,,0.00,,2013-03-10 15:52:00,
2013-03-10 12:01:00,70.0,55.0,30.01,South,186,1.0,1.0,59,0.00,,,0.00,,2013-03-10 16:01:00,
2013-03-10 12:12:00,70.0,55.0,30.01,South,186,1.0,1.0,59,0.00,,,0.00,,2013-03-10 16:12:00,
2013-03-10 12:21:00,71.0,55.0,30.00,SW,233,0.0,2.0,58,0.00,,,0.00,,2013-03-10 16:21:00,
2013-03-10 12:32:00,71.0,55.0,30.00,South,170,3.0,3.0,57,0.00,,,0.00,,2013-03-10 16:32:00,
2013-03-10 12:41:00,71.0,55.0,30.00,South,170,3.0,3.0,57,0.00,,,0.00,,2013-03-10 16:41:00,
2013-03-10 12:51:00,72.0,55.0,30.00,SSE,165,2.0,5.0,55,0.00,,,0.00,,2013-03-10 16:51:00,
2013-03-10 13:01:00,73.0,55.0,30.00,South,175,8.0,14.0,54,0.00,,,0.00,,2013-03-10 17:01:00,
2013-03-10 13:11:00,73.0,55.0,30.00,South,175,8.0,14.0,54,0.00,,,0.00,,2013-03-10 17:11:00,
2013-03-10 13:21:00,73.0,55.0,30.01,South,172,6.0,6.0,53,0.00,,,0.00,,2013-03-10 17:21:00,
2013-03-10 13:31:00,74.0,55.0,30.01,South,182,2.0,3.0,51,0.00,,,0.00,,2013-03-10 17:31:00,
2013-03-10 13:41:00,74.0,55.0,30.01,South,182,2.0,3.0,51,0.00,,,0.00,,2013-03-10 17:41:00,
2013-03-10 13:51:00,74.0,54.0,30.00,South,173,2.0,2.0,50,0.00,,,0.00,,2013-03-10 17:51:00,
2013-03-10 14:01:00,75.0,55.0,29.99,South,181,1.0,1.0,50,0.00,,,0.00,,2013-03-10 18:01:00,
2013-03-10 14:11:00,74.0,54.0,29.99,SSE,162,1.0,7.0,50,0.00,,,0.00,,2013-03-10 18:11:00,
2013-03-10 14:22:00,74.0,54.0,29.99,SSE,162,1.0,7.0,50,0.00,,,0.00,,2013-03-10 18:22:00,
2013-03-10 14:32:00,75.0,54.0,29.98,WSW,240,1.0,2.0,48,0.00,,,0.00,,2013-03-10 18:32:00,
2013-03-10 14:42:00,75.0,54.0,29.98,WSW,240,1.0,2.0,48,0.00,,,0.00,,2013-03-10 18:42:00,
2013-03-10 14:52:00,76.0,54.0,29.97,ENE,57,0.0,3.0,47,0.00,,,0.00,,2013-03-10 18:52:00,
2013-03-10 15:01:00,76.0,54.0,29.97,South,183,7.0,7.0,46,0.00,,,0.00,,2013-03-10 19:01:00,
2013-03-10 15:11:00,76.0,54.0,29.97,South,183,7.0,7.0,46,0.00,,,0.00,,2013-03-10 19:11:00,
2013-03-10 15:21:00,77.0,55.0,29.97,SSE,167,3.0,6.0,46,0.00,,,0.00,,2013-03-10 19:21:00,
2013-03-10 15:32:00,77.0,55.0,29.97,South,176,2.0,4.0,46,0.00,,,0.00,,2013-03-10 19:32:00,
2013-03-10 15:42:00,77.0,55.0,29.97,South,176,2.0,4.0,46,0.00,,,0.00,,2013-03-10 19:42:00,
2013-03-10 15:53:00,77.0,55.0,29.96,South,173,2.0,5.0,46,0.00,,,0.00,,2013-03-10 19:53:00,
2013-03-10 16:02:00,77.0,54.0,29.96,SSW,197,1.0,1.0,45,0.00,,,0.00,,2013-03-10 20:02:00,
2013-03-10 16:12:00,77.0,54.0,29.96,SSW,197,1.0,1.0,45,0.00,,,0.00,,2013-03-10 20:12:00,
2013-03-10 16:22:00,77.0,53.0,29.96,South,183,5.0,6.0,44,0.00,,,0.00,,2013-03-10 20:22:00,
2013-03-10 16:32:00,79.0,55.0,29.95,SSE,157,2.0,2.0,43,0.00,,,0.00,,2013-03-10 20:32:00,
2013-03-10 16:42:00,79.0,55.0,29.95,SSE,157,2.0,2.0,43,0.00,,,0.00,,2013-03-10 20:42:00,
2013-03-10 16:53:00,78.0,54.0,29.95,WSW,251,0.0,0.0,43,0.00,,,0.00,,2013-03-10 20:53:00,
2013-03-10 17:02:00,78.0,54.0,29.95,North,360,0.0,0.0,44,0.00,,,0.00,,2013-03-10 21:02:00,
2013-03-10 17:12:00,78.0,54.0,29.95,North,360,0.0,0.0,44,0.00,,,0.00,,2013-03-10 21:12:00,
2013-03-10 17:23:00,78.0,53.0,29.94,SSE,152,1.0,3.0,42,0.00,,,0.00,,2013-03-10 21:23:00,
2013-03-10 17:32:00,77.0,55.0,29.94,South,182,5.0,7.0,46,0.00,,,0.00,,2013-03-10 21:32:00,
2013-03-10 17:42:00,77.0,55.0,29.94,South,182,5.0,7.0,46,0.00,,,0.00,,2013-03-10 21:42:00,
2013-03-10 17:53:00,74.0,55.0,29.94,SW,227,0.0,3.0,51,0.00,,,0.00,,2013-03-10 21:53:00,
2013-03-10 18:02:00,73.0,55.0,29.94,North,360,0.0,0.0,53,0.00,,,0.00,,2013-03-10 22:02:00,
2013-03-10 18:12:00,73.0,55.0,29.94,North,360,0.0,0.0,53,0.00,,,0.00,,2013-03-10 22:12:00,
2013-03-10 18:22:00,73.0,55.0,29.94,SSE,165,2.0,2.0,53,0.00,,,0.00,,2013-03-10 22:22:00,
2013-03-10 18:32:00,73.0,55.0,29.95,North,360,0.0,0.0,54,0.00,,,0.00,,2013-03-10 22:32:00,
2013-03-10 18:43:00,73.0,55.0,29.95,North,360,0.0,0.0,54,0.00,,,0.00,,2013-03-10 22:43:00,
2013-03-10 18:53:00,72.0,55.0,29.95,North,360,0.0,0.0,56,0.00,,,0.00,,2013-03-10 22:53:00,
2013-03-10 19:03:00,70.0,55.0,29.95,North,360,0.0,0.0,59,0.00,,,0.00,,2013-03-10 23:03:00,
2013-03-10 19:12:00,69.0,55.0,29.96,North,360,0.0,0.0,61,0.00,,,0.00,,2013-03-10 23:12:00,
2013-03-10 19:23:00,69.0,55.0,29.96,North,360,0.0,0.0,61,0.00,,,0.00,,2013-03-10 23:23:00,
2013-03-10 19:33:00,68.0,55.0,29.96,North,360,0.0,0.0,63,0.00,,,0.00,,2013-03-10 23:33:00,
2013-03-10 19:42:00,68.0,55.0,29.96,North,360,0.0,0.0,63,0.00,,,0.00,,2013-03-10 23:42:00,
2013-03-10 19:52:00,68.0,55.0,29.96,North,6,1.0,1.0,64,0.00,,,0.00,,2013-03-10 23:52:00,
2013-03-10 20:02:00,67.0,55.0,29.97,North,360,0.0,0.0,66,0.00,,,0.00,,2013-03-11 00:02:00,
2013-03-10 20:12:00,67.0,55.0,29.97,North,360,0.0,0.0,66,0.00,,,0.00,,2013-03-11 00:12:00,
2013-03-10 20:23:00,67.0,56.0,29.97,North,360,0.0,0.0,67,0.00,,,0.00,,2013-03-11 00:23:00,
2013-03-10 20:33:00,66.0,55.0,29.97,North,360,0.0,0.0,68,0.00,,,0.00,,2013-03-11 00:33:00,
2013-03-10 20:43:00,66.0,55.0,29.97,North,360,0.0,0.0,68,0.00,,,0.00,,2013-03-11 00:43:00,
2013-03-10 20:53:00,66.0,56.0,29.98,North,360,0.0,0.0,69,0.00,,,0.00,,2013-03-11 00:53:00,
2013-03-10 21:03:00,66.0,56.0,29.98,North,360,0.0,0.0,70,0.00,,,0.00,,2013-03-11 01:03:00,
2013-03-10 21:13:00,66.0,56.0,29.98,North,360,0.0,0.0,70,0.00,,,0.00,,2013-03-11 01:13:00,
2013-03-10 21:23:00,65.0,55.0,29.99,NNE,15,1.0,2.0,70,0.00,,,0.00,,2013-03-11 01:23:00,
2013-03-10 21:32:00,65.0,55.0,29.99,NNE,15,0.0,0.0,71,0.00,,,0.00,,2013-03-11 01:32:00,
2013-03-10 21:42:00,65.0,55.0,29.99,NNE,15,0.0,0.0,71,0.00,,,0.00,,2013-03-11 01:42:00,
2013-03-10 21:53:00,65.0,55.0,29.99,NNE,15,0.0,0.0,71,0.00,,,0.00,,2013-03-11 01:53:00,
2013-03-10 22:02:00,65.0,55.0,29.99,NNE,15,0.0,0.0,71,0.00,,,0.00,,2013-03-11 02:02:00,
2013-03-10 22:12:00,65.0,55.0,29.99,NNE,15,0.0,0.0,71,0.00,,,0.00,,2013-03-11 02:12:00,
2013-03-10 22:23:00,64.0,54.0,30.00,NNE,23,3.0,3.0,71,0.00,,,0.00,,2013-03-11 02:23:00,
2013-03-10 22:32:00,64.0,54.0,30.00,NE,45,0.0,0.0,71,0.00,,,0.00,,2013-03-11 02:32:00,
2013-03-10 22:42:00,64.0,54.0,30.00,NE,45,0.0,0.0,71,0.00,,,0.00,,2013-03-11 02:42:00,
2013-03-10 22:53:00,64.0,54.0,30.00,North,360,0.0,0.0,70,0.00,,,0.00,,2013-03-11 02:53:00,
2013-03-10 23:02:00,64.0,54.0,30.00,NE,39,2.0,2.0,70,0.00,,,0.00,,2013-03-11 03:02:00,
2013-03-10 23:12:00,64.0,54.0,30.00,NE,39,2.0,2.0,70,0.00,,,0.00,,2013-03-11 03:12:00,
2013-03-10 23:22:00,64.0,54.0,30.00,North,360,0.0,0.0,70,0.00,,,0.00,,2013-03-11 03:22:00,
2013-03-10 23:32:00,64.0,54.0,30.00,North,360,0.0,0.0,71,0.00,,,0.00,,2013-03-11 03:32:00,
2013-03-10 23:42:00,64.0,54.0,30.00,North,360,0.0,0.0,71,0.00,,,0.00,,2013-03-11 03:42:00,
2013-03-10 23:53:00,63.0,54.0,30.00,North,360,0.0,0.0,72,0.00,,,0.00,,2013-03-11 03:53:00,